sensor_id;sensor_type;location;lat;lon;timestamp;temperature;humidity
55135;DHT22;41031;44.750;11.308;2022-11-09T00:01:02;11.80;89.70
55135;DHT22;41031;44.750;11.308;2022-11-09T00:03:30;11.80;89.70
55135;DHT22;41031;44.750;11.308;2022-11-09T00:05:58;11.80;89.60
55135;DHT22;41031;44.750;11.308;2022-11-09T00:08:25;11.80;89.60
55135;DHT22;41031;44.750;11.308;2022-11-09T00:10:52;11.80;89.60
55135;DHT22;41031;44.750;11.308;2022-11-09T00:13:20;11.80;89.50
55135;DHT22;41031;44.750;11.308;2022-11-09T00:15:47;11.80;89.50
55135;DHT22;41031;44.750;11.308;2022-11-09T00:18:14;11.80;89.50
55135;DHT22;41031;44.750;11.308;2022-11-09T00:20:41;11.70;89.30
55135;DHT22;41031;44.750;11.308;2022-11-09T00:23:15;11.80;89.40
55135;DHT22;41031;44.750;11.308;2022-11-09T00:25:43;11.70;89.40
55135;DHT22;41031;44.750;11.308;2022-11-09T00:28:10;11.70;89.50
55135;DHT22;41031;44.750;11.308;2022-11-09T00:30:37;11.70;89.60
55135;DHT22;41031;44.750;11.308;2022-11-09T00:33:04;11.70;89.50
55135;DHT22;41031;44.750;11.308;2022-11-09T00:35:32;11.70;89.50
55135;DHT22;41031;44.750;11.308;2022-11-09T00:38:01;11.70;89.40
55135;DHT22;41031;44.750;11.308;2022-11-09T00:40:28;11.60;89.30
55135;DHT22;41031;44.750;11.308;2022-11-09T00:42:56;11.60;89.30
55135;DHT22;41031;44.750;11.308;2022-11-09T00:45:23;11.60;89.40
55135;DHT22;41031;44.750;11.308;2022-11-09T00:47:50;11.60;89.20
55135;DHT22;41031;44.750;11.308;2022-11-09T00:50:17;11.50;89.20
55135;DHT22;41031;44.750;11.308;2022-11-09T00:52:44;11.50;89.10
55135;DHT22;41031;44.750;11.308;2022-11-09T00:55:11;11.50;89.10
55135;DHT22;41031;44.750;11.308;2022-11-09T00:57:38;11.40;89.10
55135;DHT22;41031;44.750;11.308;2022-11-09T01:00:06;11.40;89.10
55135;DHT22;41031;44.750;11.308;2022-11-09T01:02:33;11.40;89.20
55135;DHT22;41031;44.750;11.308;2022-11-09T01:05:00;11.30;89.30
55135;DHT22;41031;44.750;11.308;2022-11-09T01:07:27;11.30;90.00
55135;DHT22;41031;44.750;11.308;2022-11-09T01:09:54;11.30;89.60
55135;DHT22;41031;44.750;11.308;2022-11-09T01:12:23;11.20;89.60
55135;DHT22;41031;44.750;11.308;2022-11-09T01:14:50;11.20;89.70
55135;DHT22;41031;44.750;11.308;2022-11-09T01:17:17;11.30;90.00
55135;DHT22;41031;44.750;11.308;2022-11-09T01:19:46;11.30;90.00
55135;DHT22;41031;44.750;11.308;2022-11-09T01:22:14;11.30;90.00
55135;DHT22;41031;44.750;11.308;2022-11-09T01:24:41;11.30;89.80
55135;DHT22;41031;44.750;11.308;2022-11-09T01:27:08;11.30;89.80
55135;DHT22;41031;44.750;11.308;2022-11-09T01:29:35;11.30;90.00
55135;DHT22;41031;44.750;11.308;2022-11-09T01:32:03;11.40;90.00
55135;DHT22;41031;44.750;11.308;2022-11-09T01:34:30;11.30;90.10
55135;DHT22;41031;44.750;11.308;2022-11-09T01:37:01;11.40;90.20
55135;DHT22;41031;44.750;11.308;2022-11-09T01:39:29;11.40;90.30
55135;DHT22;41031;44.750;11.308;2022-11-09T01:41:56;11.50;90.30
55135;DHT22;41031;44.750;11.308;2022-11-09T01:44:26;11.50;90.40
55135;DHT22;41031;44.750;11.308;2022-11-09T01:47:02;11.50;90.40
55135;DHT22;41031;44.750;11.308;2022-11-09T01:49:48;11.60;90.40
55135;DHT22;41031;44.750;11.308;2022-11-09T01:55:12;11.60;90.30
55135;DHT22;41031;44.750;11.308;2022-11-09T01:57:46;11.70;90.40
55135;DHT22;41031;44.750;11.308;2022-11-09T02:00:18;11.70;90.40
55135;DHT22;41031;44.750;11.308;2022-11-09T02:02:51;11.70;90.40
55135;DHT22;41031;44.750;11.308;2022-11-09T02:05:24;11.70;90.40
55135;DHT22;41031;44.750;11.308;2022-11-09T02:07:54;11.70;90.40
55135;DHT22;41031;44.750;11.308;2022-11-09T02:10:32;11.80;90.40
55135;DHT22;41031;44.750;11.308;2022-11-09T02:13:01;11.80;90.40
55135;DHT22;41031;44.750;11.308;2022-11-09T02:15:35;11.80;90.40
55135;DHT22;41031;44.750;11.308;2022-11-09T02:18:10;11.80;90.40
55135;DHT22;41031;44.750;11.308;2022-11-09T02:20:56;11.90;90.40
55135;DHT22;41031;44.750;11.308;2022-11-09T02:23:25;11.90;90.50
55135;DHT22;41031;44.750;11.308;2022-11-09T02:26:00;11.90;90.40
55135;DHT22;41031;44.750;11.308;2022-11-09T02:28:30;11.90;90.50
55135;DHT22;41031;44.750;11.308;2022-11-09T02:30:58;11.90;90.50
55135;DHT22;41031;44.750;11.308;2022-11-09T02:33:25;11.90;90.50
55135;DHT22;41031;44.750;11.308;2022-11-09T02:35:53;11.90;90.50
55135;DHT22;41031;44.750;11.308;2022-11-09T02:38:21;12.00;90.50
55135;DHT22;41031;44.750;11.308;2022-11-09T02:40:49;12.00;90.50
55135;DHT22;41031;44.750;11.308;2022-11-09T02:43:18;12.00;90.50
55135;DHT22;41031;44.750;11.308;2022-11-09T02:45:46;12.00;90.50
55135;DHT22;41031;44.750;11.308;2022-11-09T02:48:14;12.00;90.50
55135;DHT22;41031;44.750;11.308;2022-11-09T02:50:41;12.10;90.60
55135;DHT22;41031;44.750;11.308;2022-11-09T02:53:08;12.10;90.50
55135;DHT22;41031;44.750;11.308;2022-11-09T02:55:39;12.10;90.40
55135;DHT22;41031;44.750;11.308;2022-11-09T02:58:07;12.10;90.40
55135;DHT22;41031;44.750;11.308;2022-11-09T03:00:35;12.10;90.40
55135;DHT22;41031;44.750;11.308;2022-11-09T03:03:03;12.20;90.40
55135;DHT22;41031;44.750;11.308;2022-11-09T03:05:30;12.20;90.40
55135;DHT22;41031;44.750;11.308;2022-11-09T03:07:58;12.20;90.40
55135;DHT22;41031;44.750;11.308;2022-11-09T03:10:31;12.20;90.40
55135;DHT22;41031;44.750;11.308;2022-11-09T03:12:59;12.20;90.40
55135;DHT22;41031;44.750;11.308;2022-11-09T03:15:26;12.20;90.40
55135;DHT22;41031;44.750;11.308;2022-11-09T03:17:53;12.20;90.40
55135;DHT22;41031;44.750;11.308;2022-11-09T03:20:22;12.20;90.40
55135;DHT22;41031;44.750;11.308;2022-11-09T03:22:50;12.30;90.40
55135;DHT22;41031;44.750;11.308;2022-11-09T03:25:17;12.30;90.30
55135;DHT22;41031;44.750;11.308;2022-11-09T03:27:44;12.30;90.30
55135;DHT22;41031;44.750;11.308;2022-11-09T03:30:12;12.30;90.30
55135;DHT22;41031;44.750;11.308;2022-11-09T03:32:39;12.30;90.30
55135;DHT22;41031;44.750;11.308;2022-11-09T03:35:07;12.30;90.30
55135;DHT22;41031;44.750;11.308;2022-11-09T03:37:34;12.30;90.30
55135;DHT22;41031;44.750;11.308;2022-11-09T03:40:02;12.30;90.30
55135;DHT22;41031;44.750;11.308;2022-11-09T03:42:29;12.30;90.30
55135;DHT22;41031;44.750;11.308;2022-11-09T03:44:56;12.30;90.30
55135;DHT22;41031;44.750;11.308;2022-11-09T03:47:23;12.30;90.30
55135;DHT22;41031;44.750;11.308;2022-11-09T03:49:50;12.30;90.30
55135;DHT22;41031;44.750;11.308;2022-11-09T03:52:17;12.30;90.40
55135;DHT22;41031;44.750;11.308;2022-11-09T03:54:44;12.40;90.40
55135;DHT22;41031;44.750;11.308;2022-11-09T03:57:11;12.40;90.40
55135;DHT22;41031;44.750;11.308;2022-11-09T03:59:38;12.40;90.40
55135;DHT22;41031;44.750;11.308;2022-11-09T04:02:05;12.40;90.40
55135;DHT22;41031;44.750;11.308;2022-11-09T04:04:32;12.40;90.30
55135;DHT22;41031;44.750;11.308;2022-11-09T04:06:59;12.40;90.40
55135;DHT22;41031;44.750;11.308;2022-11-09T04:09:26;12.40;90.30
55135;DHT22;41031;44.750;11.308;2022-11-09T04:11:53;12.40;90.30
55135;DHT22;41031;44.750;11.308;2022-11-09T04:14:20;12.40;90.30
55135;DHT22;41031;44.750;11.308;2022-11-09T04:16:47;12.50;90.30
55135;DHT22;41031;44.750;11.308;2022-11-09T04:19:14;12.50;90.20
55135;DHT22;41031;44.750;11.308;2022-11-09T04:21:41;12.50;90.20
55135;DHT22;41031;44.750;11.308;2022-11-09T04:24:09;12.50;90.20
55135;DHT22;41031;44.750;11.308;2022-11-09T04:26:36;12.50;90.30
55135;DHT22;41031;44.750;11.308;2022-11-09T04:29:03;12.50;90.30
55135;DHT22;41031;44.750;11.308;2022-11-09T04:31:30;12.50;90.30
55135;DHT22;41031;44.750;11.308;2022-11-09T04:33:57;12.40;90.30
55135;DHT22;41031;44.750;11.308;2022-11-09T04:36:24;12.40;90.30
55135;DHT22;41031;44.750;11.308;2022-11-09T04:38:51;12.40;90.40
55135;DHT22;41031;44.750;11.308;2022-11-09T04:41:18;12.50;90.40
55135;DHT22;41031;44.750;11.308;2022-11-09T04:43:45;12.50;90.40
55135;DHT22;41031;44.750;11.308;2022-11-09T04:46:12;12.40;90.30
55135;DHT22;41031;44.750;11.308;2022-11-09T04:48:39;12.50;90.40
55135;DHT22;41031;44.750;11.308;2022-11-09T04:51:08;12.50;90.40
55135;DHT22;41031;44.750;11.308;2022-11-09T04:53:37;12.40;90.40
55135;DHT22;41031;44.750;11.308;2022-11-09T04:56:05;12.40;90.40
55135;DHT22;41031;44.750;11.308;2022-11-09T04:58:33;12.40;90.40
55135;DHT22;41031;44.750;11.308;2022-11-09T05:01:10;12.40;90.50
55135;DHT22;41031;44.750;11.308;2022-11-09T05:03:38;12.40;90.50
55135;DHT22;41031;44.750;11.308;2022-11-09T05:06:05;12.50;90.50
55135;DHT22;41031;44.750;11.308;2022-11-09T05:08:54;12.50;90.50
55135;DHT22;41031;44.750;11.308;2022-11-09T05:11:21;12.50;90.50
55135;DHT22;41031;44.750;11.308;2022-11-09T05:13:49;12.50;90.50
55135;DHT22;41031;44.750;11.308;2022-11-09T05:16:18;12.50;90.50
55135;DHT22;41031;44.750;11.308;2022-11-09T05:18:46;12.50;90.50
55135;DHT22;41031;44.750;11.308;2022-11-09T05:21:13;12.40;90.60
55135;DHT22;41031;44.750;11.308;2022-11-09T05:23:40;12.40;90.90
55135;DHT22;41031;44.750;11.308;2022-11-09T05:26:31;12.40;90.60
55135;DHT22;41031;44.750;11.308;2022-11-09T05:29:00;12.40;90.60
55135;DHT22;41031;44.750;11.308;2022-11-09T05:31:28;12.50;90.50
55135;DHT22;41031;44.750;11.308;2022-11-09T05:33:56;12.40;90.50
55135;DHT22;41031;44.750;11.308;2022-11-09T05:36:23;12.40;90.60
55135;DHT22;41031;44.750;11.308;2022-11-09T05:38:50;12.40;90.60
55135;DHT22;41031;44.750;11.308;2022-11-09T05:41:17;12.40;90.60
55135;DHT22;41031;44.750;11.308;2022-11-09T05:43:45;12.30;90.60
55135;DHT22;41031;44.750;11.308;2022-11-09T05:46:13;12.30;90.70
55135;DHT22;41031;44.750;11.308;2022-11-09T05:48:41;12.30;90.70
55135;DHT22;41031;44.750;11.308;2022-11-09T05:51:10;12.30;90.70
55135;DHT22;41031;44.750;11.308;2022-11-09T05:53:37;12.30;90.70
55135;DHT22;41031;44.750;11.308;2022-11-09T05:56:12;12.30;90.70
55135;DHT22;41031;44.750;11.308;2022-11-09T05:58:40;12.30;90.70
55135;DHT22;41031;44.750;11.308;2022-11-09T06:01:13;12.30;90.80
55135;DHT22;41031;44.750;11.308;2022-11-09T06:03:41;12.30;90.80
55135;DHT22;41031;44.750;11.308;2022-11-09T06:06:12;12.30;90.90
55135;DHT22;41031;44.750;11.308;2022-11-09T06:08:40;12.30;90.90
55135;DHT22;41031;44.750;11.308;2022-11-09T06:11:08;12.30;90.90
55135;DHT22;41031;44.750;11.308;2022-11-09T06:13:36;12.30;90.90
55135;DHT22;41031;44.750;11.308;2022-11-09T06:16:04;12.30;90.90
55135;DHT22;41031;44.750;11.308;2022-11-09T06:18:33;12.30;91.00
55135;DHT22;41031;44.750;11.308;2022-11-09T06:21:02;12.30;91.00
55135;DHT22;41031;44.750;11.308;2022-11-09T06:23:30;12.30;91.00
55135;DHT22;41031;44.750;11.308;2022-11-09T06:26:00;12.30;91.00
55135;DHT22;41031;44.750;11.308;2022-11-09T06:28:28;12.40;91.10
55135;DHT22;41031;44.750;11.308;2022-11-09T06:30:59;12.40;91.10
55135;DHT22;41031;44.750;11.308;2022-11-09T06:33:29;12.40;91.10
55135;DHT22;41031;44.750;11.308;2022-11-09T06:35:57;12.40;91.10
55135;DHT22;41031;44.750;11.308;2022-11-09T06:38:25;12.40;91.10
55135;DHT22;41031;44.750;11.308;2022-11-09T06:40:53;12.40;91.00
55135;DHT22;41031;44.750;11.308;2022-11-09T06:43:21;12.40;91.00
55135;DHT22;41031;44.750;11.308;2022-11-09T06:45:49;12.40;91.10
55135;DHT22;41031;44.750;11.308;2022-11-09T06:48:16;12.30;91.00
55135;DHT22;41031;44.750;11.308;2022-11-09T06:50:44;12.30;91.10
55135;DHT22;41031;44.750;11.308;2022-11-09T06:53:13;12.40;91.10
55135;DHT22;41031;44.750;11.308;2022-11-09T06:55:40;12.40;91.20
55135;DHT22;41031;44.750;11.308;2022-11-09T06:58:15;12.50;91.30
55135;DHT22;41031;44.750;11.308;2022-11-09T07:00:43;12.70;91.10
55135;DHT22;41031;44.750;11.308;2022-11-09T07:03:13;12.90;90.80
55135;DHT22;41031;44.750;11.308;2022-11-09T07:05:40;13.30;90.40
55135;DHT22;41031;44.750;11.308;2022-11-09T07:08:08;13.60;89.80
55135;DHT22;41031;44.750;11.308;2022-11-09T07:10:35;13.80;88.60
55135;DHT22;41031;44.750;11.308;2022-11-09T07:13:03;13.90;87.90
55135;DHT22;41031;44.750;11.308;2022-11-09T07:15:31;13.90;87.70
55135;DHT22;41031;44.750;11.308;2022-11-09T07:17:59;14.00;87.80
55135;DHT22;41031;44.750;11.308;2022-11-09T07:20:27;14.00;87.50
55135;DHT22;41031;44.750;11.308;2022-11-09T07:22:54;14.20;87.20
55135;DHT22;41031;44.750;11.308;2022-11-09T07:25:22;14.30;86.70
55135;DHT22;41031;44.750;11.308;2022-11-09T07:27:50;14.40;86.50
55135;DHT22;41031;44.750;11.308;2022-11-09T07:30:18;14.50;86.30
55135;DHT22;41031;44.750;11.308;2022-11-09T07:32:46;14.40;86.00
55135;DHT22;41031;44.750;11.308;2022-11-09T07:35:33;14.40;86.10
55135;DHT22;41031;44.750;11.308;2022-11-09T07:38:00;14.30;86.20
55135;DHT22;41031;44.750;11.308;2022-11-09T07:40:28;14.30;86.30
55135;DHT22;41031;44.750;11.308;2022-11-09T07:43:00;14.20;86.70
55135;DHT22;41031;44.750;11.308;2022-11-09T07:45:31;14.20;87.20
55135;DHT22;41031;44.750;11.308;2022-11-09T07:48:00;14.30;87.00
55135;DHT22;41031;44.750;11.308;2022-11-09T07:50:29;14.30;86.60
55135;DHT22;41031;44.750;11.308;2022-11-09T07:52:58;14.40;86.40
55135;DHT22;41031;44.750;11.308;2022-11-09T07:55:26;14.50;86.50
55135;DHT22;41031;44.750;11.308;2022-11-09T07:58:13;14.60;86.60
55135;DHT22;41031;44.750;11.308;2022-11-09T08:00:41;14.70;86.20
55135;DHT22;41031;44.750;11.308;2022-11-09T08:03:09;14.80;85.90
55135;DHT22;41031;44.750;11.308;2022-11-09T08:05:37;15.00;85.50
55135;DHT22;41031;44.750;11.308;2022-11-09T08:08:06;15.20;84.90
55135;DHT22;41031;44.750;11.308;2022-11-09T08:10:35;15.30;84.00
55135;DHT22;41031;44.750;11.308;2022-11-09T08:13:10;15.50;83.40
55135;DHT22;41031;44.750;11.308;2022-11-09T08:15:39;15.60;83.10
55135;DHT22;41031;44.750;11.308;2022-11-09T08:18:12;15.70;81.60
55135;DHT22;41031;44.750;11.308;2022-11-09T08:20:39;15.80;80.70
55135;DHT22;41031;44.750;11.308;2022-11-09T08:23:06;15.90;80.00
55135;DHT22;41031;44.750;11.308;2022-11-09T08:25:34;15.90;77.80
55135;DHT22;41031;44.750;11.308;2022-11-09T08:28:01;16.00;76.80
55135;DHT22;41031;44.750;11.308;2022-11-09T08:30:30;16.00;77.10
55135;DHT22;41031;44.750;11.308;2022-11-09T08:32:58;16.10;77.20
55135;DHT22;41031;44.750;11.308;2022-11-09T08:35:26;16.20;76.90
55135;DHT22;41031;44.750;11.308;2022-11-09T08:37:54;16.30;74.90
55135;DHT22;41031;44.750;11.308;2022-11-09T08:40:23;16.40;74.40
55135;DHT22;41031;44.750;11.308;2022-11-09T08:42:51;16.50;74.50
55135;DHT22;41031;44.750;11.308;2022-11-09T08:45:18;16.60;74.10
55135;DHT22;41031;44.750;11.308;2022-11-09T08:47:46;16.60;74.10
55135;DHT22;41031;44.750;11.308;2022-11-09T08:50:14;16.70;73.70
55135;DHT22;41031;44.750;11.308;2022-11-09T08:52:41;16.80;73.70
55135;DHT22;41031;44.750;11.308;2022-11-09T08:55:08;16.90;73.00
55135;DHT22;41031;44.750;11.308;2022-11-09T08:57:35;16.90;73.00
55135;DHT22;41031;44.750;11.308;2022-11-09T09:00:04;17.00;73.20
55135;DHT22;41031;44.750;11.308;2022-11-09T09:02:31;17.10;72.60
55135;DHT22;41031;44.750;11.308;2022-11-09T09:04:58;17.10;72.20
55135;DHT22;41031;44.750;11.308;2022-11-09T09:07:25;17.20;71.60
55135;DHT22;41031;44.750;11.308;2022-11-09T09:09:52;17.20;70.90
55135;DHT22;41031;44.750;11.308;2022-11-09T09:12:19;17.20;71.20
55135;DHT22;41031;44.750;11.308;2022-11-09T09:14:46;17.20;71.00
55135;DHT22;41031;44.750;11.308;2022-11-09T09:17:13;17.20;71.30
55135;DHT22;41031;44.750;11.308;2022-11-09T09:19:41;17.30;71.50
55135;DHT22;41031;44.750;11.308;2022-11-09T09:22:15;17.40;71.60
55135;DHT22;41031;44.750;11.308;2022-11-09T09:24:45;17.50;71.60
55135;DHT22;41031;44.750;11.308;2022-11-09T09:27:12;17.50;71.30
55135;DHT22;41031;44.750;11.308;2022-11-09T09:29:39;17.60;71.00
55135;DHT22;41031;44.750;11.308;2022-11-09T09:32:06;17.70;70.60
55135;DHT22;41031;44.750;11.308;2022-11-09T09:34:33;17.70;70.30
55135;DHT22;41031;44.750;11.308;2022-11-09T09:37:00;17.70;70.40
55135;DHT22;41031;44.750;11.308;2022-11-09T09:39:27;17.70;70.60
55135;DHT22;41031;44.750;11.308;2022-11-09T09:42:00;17.70;70.40
55135;DHT22;41031;44.750;11.308;2022-11-09T09:47:59;17.90;70.20
55135;DHT22;41031;44.750;11.308;2022-11-09T09:53:13;18.10;69.70
55135;DHT22;41031;44.750;11.308;2022-11-09T09:56:20;18.10;69.50
55135;DHT22;41031;44.750;11.308;2022-11-09T09:58:55;18.30;69.30
55135;DHT22;41031;44.750;11.308;2022-11-09T10:01:32;18.40;69.30
55135;DHT22;41031;44.750;11.308;2022-11-09T10:04:01;18.50;68.70
55135;DHT22;41031;44.750;11.308;2022-11-09T10:09:27;18.60;67.80
55135;DHT22;41031;44.750;11.308;2022-11-09T10:12:01;18.60;67.80
55135;DHT22;41031;44.750;11.308;2022-11-09T10:26:22;18.80;66.60
55135;DHT22;41031;44.750;11.308;2022-11-09T10:29:00;18.80;66.80
55135;DHT22;41031;44.750;11.308;2022-11-09T10:31:43;18.90;66.80
55135;DHT22;41031;44.750;11.308;2022-11-09T10:34:39;19.00;66.80
55135;DHT22;41031;44.750;11.308;2022-11-09T10:39:59;19.10;65.50
55135;DHT22;41031;44.750;11.308;2022-11-09T10:42:53;19.20;65.50
55135;DHT22;41031;44.750;11.308;2022-11-09T10:45:43;19.30;65.00
55135;DHT22;41031;44.750;11.308;2022-11-09T10:48:32;19.30;64.60
55135;DHT22;41031;44.750;11.308;2022-11-09T10:51:39;19.40;64.20
55135;DHT22;41031;44.750;11.308;2022-11-09T10:54:35;19.50;62.70
55135;DHT22;41031;44.750;11.308;2022-11-09T10:57:23;19.60;63.50
55135;DHT22;41031;44.750;11.308;2022-11-09T11:00:15;19.70;63.70
55135;DHT22;41031;44.750;11.308;2022-11-09T11:03:14;19.90;62.30
55135;DHT22;41031;44.750;11.308;2022-11-09T11:08:50;20.10;61.00
55135;DHT22;41031;44.750;11.308;2022-11-09T11:11:37;20.00;61.20
55135;DHT22;41031;44.750;11.308;2022-11-09T11:14:31;19.90;61.60
55135;DHT22;41031;44.750;11.308;2022-11-09T11:20:30;20.10;62.30
55135;DHT22;41031;44.750;11.308;2022-11-09T11:23:22;20.20;62.00
55135;DHT22;41031;44.750;11.308;2022-11-09T11:26:33;20.30;61.80
55135;DHT22;41031;44.750;11.308;2022-11-09T11:29:53;20.40;60.60
55135;DHT22;41031;44.750;11.308;2022-11-09T11:32:39;20.50;60.90
55135;DHT22;41031;44.750;11.308;2022-11-09T11:45:41;20.40;60.70
55135;DHT22;41031;44.750;11.308;2022-11-09T11:51:47;20.20;60.60
55135;DHT22;41031;44.750;11.308;2022-11-09T12:07:35;19.80;62.50
55135;DHT22;41031;44.750;11.308;2022-11-09T12:16:30;19.60;63.10
55135;DHT22;41031;44.750;11.308;2022-11-09T12:25:59;19.70;62.80
55135;DHT22;41031;44.750;11.308;2022-11-09T12:32:04;19.80;62.10
55135;DHT22;41031;44.750;11.308;2022-11-09T12:38:04;19.90;62.50
55135;DHT22;41031;44.750;11.308;2022-11-09T12:41:04;19.90;62.50
55135;DHT22;41031;44.750;11.308;2022-11-09T12:44:16;20.10;62.50
55135;DHT22;41031;44.750;11.308;2022-11-09T12:47:07;20.30;62.10
55135;DHT22;41031;44.750;11.308;2022-11-09T12:49:55;20.50;62.40
55135;DHT22;41031;44.750;11.308;2022-11-09T12:52:42;20.60;61.80
55135;DHT22;41031;44.750;11.308;2022-11-09T12:55:38;20.50;61.80
55135;DHT22;41031;44.750;11.308;2022-11-09T12:58:28;20.50;62.40
55135;DHT22;41031;44.750;11.308;2022-11-09T13:04:20;20.30;62.50
55135;DHT22;41031;44.750;11.308;2022-11-09T13:09:53;20.20;63.10
55135;DHT22;41031;44.750;11.308;2022-11-09T13:12:39;20.10;63.60
55135;DHT22;41031;44.750;11.308;2022-11-09T13:15:28;19.90;63.30
55135;DHT22;41031;44.750;11.308;2022-11-09T13:33:18;19.40;64.60
55135;DHT22;41031;44.750;11.308;2022-11-09T13:39:29;19.20;65.40
55135;DHT22;41031;44.750;11.308;2022-11-09T13:42:26;19.00;65.60
55135;DHT22;41031;44.750;11.308;2022-11-09T13:48:40;18.90;66.20
55135;DHT22;41031;44.750;11.308;2022-11-09T13:54:28;19.10;66.50
55135;DHT22;41031;44.750;11.308;2022-11-09T13:57:15;19.10;65.90
55135;DHT22;41031;44.750;11.308;2022-11-09T14:00:02;19.10;65.50
55135;DHT22;41031;44.750;11.308;2022-11-09T14:03:03;19.10;65.60
55135;DHT22;41031;44.750;11.308;2022-11-09T14:05:53;19.00;65.50
55135;DHT22;41031;44.750;11.308;2022-11-09T14:08:42;18.90;65.70
55135;DHT22;41031;44.750;11.308;2022-11-09T14:11:47;18.80;66.00
55135;DHT22;41031;44.750;11.308;2022-11-09T14:23:45;18.40;67.30
55135;DHT22;41031;44.750;11.308;2022-11-09T14:26:31;18.40;67.70
55135;DHT22;41031;44.750;11.308;2022-11-09T14:29:20;18.40;67.80
55135;DHT22;41031;44.750;11.308;2022-11-09T14:32:21;18.40;67.60
55135;DHT22;41031;44.750;11.308;2022-11-09T14:35:39;18.40;67.60
55135;DHT22;41031;44.750;11.308;2022-11-09T14:38:27;18.30;68.40
55135;DHT22;41031;44.750;11.308;2022-11-09T14:41:20;18.20;68.50
55135;DHT22;41031;44.750;11.308;2022-11-09T14:44:28;18.20;68.60
55135;DHT22;41031;44.750;11.308;2022-11-09T14:47:18;18.10;68.80
55135;DHT22;41031;44.750;11.308;2022-11-09T14:50:09;18.00;68.80
55135;DHT22;41031;44.750;11.308;2022-11-09T14:52:59;17.90;69.10
55135;DHT22;41031;44.750;11.308;2022-11-09T14:55:45;17.80;69.50
55135;DHT22;41031;44.750;11.308;2022-11-09T14:58:36;17.80;70.00
55135;DHT22;41031;44.750;11.308;2022-11-09T15:01:24;17.70;70.30
55135;DHT22;41031;44.750;11.308;2022-11-09T15:04:16;17.70;70.50
55135;DHT22;41031;44.750;11.308;2022-11-09T15:07:04;17.60;70.40
55135;DHT22;41031;44.750;11.308;2022-11-09T15:09:54;17.50;70.50
55135;DHT22;41031;44.750;11.308;2022-11-09T15:12:49;17.40;71.10
55135;DHT22;41031;44.750;11.308;2022-11-09T15:15:35;17.40;71.50
55135;DHT22;41031;44.750;11.308;2022-11-09T15:18:31;17.30;71.50
55135;DHT22;41031;44.750;11.308;2022-11-09T15:21:32;17.30;72.00
55135;DHT22;41031;44.750;11.308;2022-11-09T15:24:19;17.20;72.30
55135;DHT22;41031;44.750;11.308;2022-11-09T15:27:29;17.10;72.30
55135;DHT22;41031;44.750;11.308;2022-11-09T15:36:25;17.00;73.20
55135;DHT22;41031;44.750;11.308;2022-11-09T15:39:19;16.90;73.60
55135;DHT22;41031;44.750;11.308;2022-11-09T15:42:08;16.80;73.80
55135;DHT22;41031;44.750;11.308;2022-11-09T15:44:56;16.80;74.60
55135;DHT22;41031;44.750;11.308;2022-11-09T15:47:52;16.80;74.30
55135;DHT22;41031;44.750;11.308;2022-11-09T15:50:38;16.70;74.70
55135;DHT22;41031;44.750;11.308;2022-11-09T15:53:24;16.60;75.00
55135;DHT22;41031;44.750;11.308;2022-11-09T15:56:21;16.60;75.20
55135;DHT22;41031;44.750;11.308;2022-11-09T15:59:18;16.50;75.50
55135;DHT22;41031;44.750;11.308;2022-11-09T16:02:04;16.50;75.90
55135;DHT22;41031;44.750;11.308;2022-11-09T16:04:50;16.40;76.00
55135;DHT22;41031;44.750;11.308;2022-11-09T16:07:36;16.40;76.40
55135;DHT22;41031;44.750;11.308;2022-11-09T16:10:22;16.40;76.60
55135;DHT22;41031;44.750;11.308;2022-11-09T16:13:08;16.30;76.70
55135;DHT22;41031;44.750;11.308;2022-11-09T16:16:01;16.30;76.90
55135;DHT22;41031;44.750;11.308;2022-11-09T16:18:47;16.30;77.20
55135;DHT22;41031;44.750;11.308;2022-11-09T16:21:33;16.30;77.40
55135;DHT22;41031;44.750;11.308;2022-11-09T16:24:19;16.20;77.50
55135;DHT22;41031;44.750;11.308;2022-11-09T16:27:05;16.20;77.60
55135;DHT22;41031;44.750;11.308;2022-11-09T16:30:12;16.20;78.00
55135;DHT22;41031;44.750;11.308;2022-11-09T16:32:58;16.10;78.10
55135;DHT22;41031;44.750;11.308;2022-11-09T16:35:43;16.10;78.30
55135;DHT22;41031;44.750;11.308;2022-11-09T16:38:31;16.00;78.40
55135;DHT22;41031;44.750;11.308;2022-11-09T16:41:20;16.00;78.60
55135;DHT22;41031;44.750;11.308;2022-11-09T16:44:06;15.90;78.70
55135;DHT22;41031;44.750;11.308;2022-11-09T16:46:51;16.00;79.00
55135;DHT22;41031;44.750;11.308;2022-11-09T16:49:37;15.90;78.90
55135;DHT22;41031;44.750;11.308;2022-11-09T16:52:22;15.90;79.10
55135;DHT22;41031;44.750;11.308;2022-11-09T16:55:08;15.90;79.30
55135;DHT22;41031;44.750;11.308;2022-11-09T16:57:53;15.90;79.30
55135;DHT22;41031;44.750;11.308;2022-11-09T17:00:46;15.90;79.40
55135;DHT22;41031;44.750;11.308;2022-11-09T17:03:52;15.90;79.60
55135;DHT22;41031;44.750;11.308;2022-11-09T17:06:37;15.80;79.60
55135;DHT22;41031;44.750;11.308;2022-11-09T17:09:23;15.80;79.80
55135;DHT22;41031;44.750;11.308;2022-11-09T17:12:09;15.70;80.00
55135;DHT22;41031;44.750;11.308;2022-11-09T17:14:54;15.70;80.10
55135;DHT22;41031;44.750;11.308;2022-11-09T17:17:40;15.70;80.30
55135;DHT22;41031;44.750;11.308;2022-11-09T17:20:25;15.60;80.40
55135;DHT22;41031;44.750;11.308;2022-11-09T17:23:12;15.60;80.60
55135;DHT22;41031;44.750;11.308;2022-11-09T17:26:03;15.50;80.70
55135;DHT22;41031;44.750;11.308;2022-11-09T17:28:49;15.50;80.90
55135;DHT22;41031;44.750;11.308;2022-11-09T17:31:35;15.50;81.10
55135;DHT22;41031;44.750;11.308;2022-11-09T17:34:21;15.50;81.20
55135;DHT22;41031;44.750;11.308;2022-11-09T17:37:07;15.40;81.40
55135;DHT22;41031;44.750;11.308;2022-11-09T17:39:52;15.40;82.20
55135;DHT22;41031;44.750;11.308;2022-11-09T17:42:38;15.40;81.70
55135;DHT22;41031;44.750;11.308;2022-11-09T17:45:24;15.40;81.80
55135;DHT22;41031;44.750;11.308;2022-11-09T17:48:10;15.40;81.90
55135;DHT22;41031;44.750;11.308;2022-11-09T17:50:56;15.30;82.00
55135;DHT22;41031;44.750;11.308;2022-11-09T17:53:42;15.30;82.20
55135;DHT22;41031;44.750;11.308;2022-11-09T17:56:28;15.30;82.20
55135;DHT22;41031;44.750;11.308;2022-11-09T17:59:14;15.30;82.40
55135;DHT22;41031;44.750;11.308;2022-11-09T18:02:00;15.30;82.60
55135;DHT22;41031;44.750;11.308;2022-11-09T18:04:45;15.30;82.70
55135;DHT22;41031;44.750;11.308;2022-11-09T18:07:31;15.20;82.80
55135;DHT22;41031;44.750;11.308;2022-11-09T18:10:17;15.20;82.90
55135;DHT22;41031;44.750;11.308;2022-11-09T18:13:03;15.20;83.10
55135;DHT22;41031;44.750;11.308;2022-11-09T18:15:49;15.10;83.30